Edmore, Michigan
Current Conditions -  °F | °C
As of 4:29 AM on Saturday 25 Oct 2014 (Local Time) from KAMN Reporting Station
Haze Haze  
Wind Chill: 43°   Ceiling: Unl
Heat Index: 46°   Visibility: 4mi
Dew Point: 46°   Wind: 7mph
Humidity: 97%   Direction: 200°SSW
Pressure: 29.83"   Gusts: NA
Location:  43.41°N, 85.04°W
Report Text: KAMN 250829Z AUTO 20006KT 4SM BR SCT065 08/08 A2983 RMK AO2 T00800075
Loading
Personal Weather Stations






























Interactive Weather Map
Tropical Storm Tracking
New forecast layout! Learn more

10-Day Weather Forecast

Advertisements
Track Severe Weather on mobile